Flight Track Log - Related Links

Times and Time Zones

All times are in EDT time to prevent confusion due to time zone crossing. See the N60GS flight status page for this flight to view local times or setup timezone preferences in your user account.

Time Position Orientation Groundspeed Altitude Reporting Facility
EDT Latitude Longitude Course Direction KTS MPH feet Rate Location/Type
Wed 06:48:18 AM 31.3628 -85.5153 333° Northwest 184 212 3,500  Level Jacksonville Center
Wed 06:48:24 AM 31.3669 -85.5178 333° Northwest 187 215 3,700 2,234 Climbing Jacksonville Center
Wed 06:49:52 AM 31.4069 -85.5919 302° West 205 236 7,000 2,270 Climbing Jacksonville Center
Wed 06:50:52 AM 31.4394 -85.6442 306° West 205 236 9,300 2,182 Climbing Jacksonville Center
Wed 06:51:53 AM 31.4739 -85.6914 311° West 199 229 11,400 1,871 Climbing Jacksonville Center
Wed 06:53:42 AM 31.5489 -85.7617 321° Northwest 209 241 14,600 1,659 Climbing Atlanta Center
Wed 06:54:43 AM 31.5814 -85.8158 305° West 193 222 16,100 1,400 Climbing Atlanta Center
Wed 06:55:42 AM 31.6161 -85.8703 307° West 204 235 17,400 1,412 Climbing Atlanta Center
Wed 06:56:42 AM 31.6508 -85.9247 307° West 204 235 18,900 1,350 Climbing Atlanta Center
Wed 06:57:42 AM 31.6856 -85.9789 307° West 204 235 20,100 1,150 Climbing Atlanta Center
Wed 06:58:42 AM 31.7242 -86.0361 308° West 209 241 21,200 1,150 Climbing Atlanta Center
Wed 06:59:42 AM 31.7586 -86.0953 304° West 214 246 22,400 900 Climbing Atlanta Center
Wed 07:00:42 AM 31.7975 -86.1550 307° West 224 258 23,000 300 Climbing Atlanta Center
Wed 07:01:42 AM 31.8422 -86.2244 307° West 247 284 23,000 400 Level Atlanta Center
Wed 07:02:42 AM 31.8867 -86.2989 305° West 270 311 23,800 1,150 Climbing Atlanta Center
Wed 07:03:42 AM 31.9272 -86.3611 308° West 263 303 25,300 1,300 Climbing Atlanta Center
Wed 07:04:42 AM 31.9656 -86.4258 305° West 257 296 26,400 1,100 Climbing Atlanta Center
Wed 07:05:42 AM 32.0125 -86.4906 311° West 257 296 27,500 1,041 Climbing Atlanta Center
Wed 07:06:43 AM 32.0528 -86.5531 307° West 252 290 28,500 1,100 Climbing Atlanta Center
Wed 07:07:42 AM 32.0872 -86.6128 304° West 247 284 29,700 1,109 Climbing Atlanta Center
Wed 07:08:42 AM 32.1275 -86.6753 307° West 242 278 30,700 1,050 Climbing Atlanta Center
Wed 07:09:42 AM 32.1658 -86.7403 305° West 236 272 31,800 992 Climbing Atlanta Center
Wed 07:10:43 AM 32.2022 -86.7978 307° West 231 266 32,700 893 Climbing Atlanta Center
Wed 07:11:43 AM 32.2403 -86.8603 306° West 231 266 33,600 900 Climbing Atlanta Center
Wed 07:12:43 AM 32.2786 -86.9206 307° West 231 266 34,500 908 Climbing Atlanta Center
Wed 07:13:42 AM 32.3169 -86.9783 308° West 226 260 35,400 750 Climbing Atlanta Center
Wed 07:14:43 AM 32.3508 -87.0383 304° West 226 260 36,000 298 Climbing Atlanta Center
Wed 07:15:43 AM 32.3892 -87.0986 307° West 226 260 36,000  Level Atlanta Center
Wed 07:16:43 AM 32.4311 -87.1692 305° West 239 275 36,000  Level Atlanta Center
Wed 07:17:43 AM 32.4772 -87.2422 307° West 257 296 36,000  Level Atlanta Center
Wed 07:18:43 AM 32.5233 -87.3178 306° West 272 313 36,000  Level Atlanta Center
Wed 07:19:43 AM 32.5714 -87.3933 307° West 278 320 36,000  Level Atlanta Center
Wed 07:20:43 AM 32.6175 -87.4667 307° West 283 326 36,000  Level Atlanta Center
Wed 07:21:43 AM 32.6633 -87.5400 307° West 283 326 36,000  Level Atlanta Center
Wed 07:22:51 AM 32.7128 -87.6264 304° West 283 326 36,000  Level Memphis Center
Wed 07:23:51 AM 32.7583 -87.7042 305° West 276 318 36,000  Level Memphis Center
Wed 07:24:51 AM 32.8058 -87.7819 306° West 281 323 36,000  Level Memphis Center
Wed 07:25:51 AM 32.8514 -87.8572 306° West 281 323 36,000  Level Memphis Center
Wed 07:26:51 AM 32.9008 -87.9325 308° West 286 329 36,000  Level Memphis Center
Wed 07:27:51 AM 32.9483 -88.0128 305° West 286 329 36,000  Level Memphis Center
Wed 07:28:51 AM 32.9914 -88.0861 305° West 281 323 36,000  Level Memphis Center
Wed 07:29:51 AM 33.0344 -88.1642 303° West 281 323 36,000  Level Memphis Center
Wed 07:30:51 AM 33.0797 -88.2350 307° West 289 333 36,000  Level Memphis Center
Wed 07:31:51 AM 33.1289 -88.3106 308° West 289 333 36,000  Level Memphis Center
Wed 07:32:51 AM 33.1739 -88.3867 305° West 289 333 36,000  Level Memphis Center
Wed 07:33:51 AM 33.2211 -88.4650 306° West 284 327 36,000  Level Memphis Center
Wed 07:34:51 AM 33.2661 -88.5436 304° West 284 327 36,000  Level Memphis Center
Wed 07:35:51 AM 33.3131 -88.6197 306° West 284 327 36,000  Level Memphis Center
Wed 07:36:51 AM 33.3581 -88.6958 305° West 284 327 36,000  Level Memphis Center
Wed 07:37:51 AM 33.4050 -88.7747 305° West 284 327 36,000  Level Memphis Center
Wed 07:38:51 AM 33.4478 -88.8533 303° West 284 327 36,000  Level Memphis Center
Wed 07:39:51 AM 33.4944 -88.9300 306° West 284 327 36,000  Level Memphis Center
Wed 07:40:51 AM 33.5392 -89.0089 304° West 284 327 36,000  Level Memphis Center
Wed 07:41:51 AM 33.5881 -89.0878 307° West 284 327 36,000  Level Memphis Center
Wed 07:42:51 AM 33.6306 -89.1647 304° West 284 327 36,000  Level Memphis Center
Wed 07:43:51 AM 33.6794 -89.2514 304° West 284 327 36,000  Level Memphis Center
Wed 07:44:51 AM 33.7258 -89.3258 307° West 284 327 36,000  Level Memphis Center
Wed 07:45:51 AM 33.7703 -89.4050 304° West 284 327 36,000  Level Memphis Center
Wed 07:46:51 AM 33.8169 -89.4822 306° West 284 327 36,000  Level Memphis Center
Wed 07:47:51 AM 33.8528 -89.5492 303° West 279 321 36,000  Level Memphis Center
Wed 07:48:51 AM 33.8992 -89.6289 305° West 284 327 36,000  Level Memphis Center
Wed 07:49:51 AM 33.9436 -89.7086 304° West 284 327 36,000  Level Memphis Center
Wed 07:50:51 AM 33.9897 -89.7836 307° West 284 327 36,000  Level Memphis Center
Wed 07:51:51 AM 34.0339 -89.8633 304° West 284 327 36,000  Level Memphis Center
Wed 07:52:51 AM 34.0822 -89.9508 304° West 284 327 36,000  Level Memphis Center
Wed 07:53:51 AM 34.1264 -90.0258 305° West 284 327 36,000  Level Memphis Center
Wed 07:54:51 AM 34.1703 -90.1061 303° West 284 327 36,000  Level Memphis Center
Wed 07:55:51 AM 34.2122 -90.1814 304° West 284 327 36,000  Level Memphis Center
Wed 07:56:51 AM 34.2583 -90.2567 307° West 284 327 36,000  Level Memphis Center
Wed 07:57:51 AM 34.3000 -90.3319 304° West 284 327 36,000  Level Memphis Center
Wed 07:58:51 AM 34.3458 -90.4125 305° West 284 327 36,000  Level Memphis Center
Wed 07:59:51 AM 34.3897 -90.4906 304° West 284 327 36,000  Level Memphis Center
Wed 08:00:51 AM 34.4292 -90.5586 305° West 284 327 36,000  Level Memphis Center
Wed 08:01:51 AM 34.4731 -90.6367 304° West 284 327 36,000  Level Memphis Center
Wed 08:02:51 AM 34.5186 -90.7150 305° West 284 327 36,000  Level Memphis Center
Wed 08:03:51 AM 34.5622 -90.7958 303° West 284 327 36,000  Level Memphis Center
Wed 08:04:51 AM 34.6058 -90.8719 305° West 284 327 36,000  Level Memphis Center
Wed 08:05:51 AM 34.6533 -90.9581 304° West 284 327 36,000  Level Memphis Center
Wed 08:06:51 AM 34.6989 -91.0392 304° West 284 327 36,000  Level Memphis Center
Wed 08:07:51 AM 34.7422 -91.1153 305° West 284 327 36,000  Level Memphis Center
Wed 08:08:51 AM 34.7833 -91.1942 302° West 284 327 36,000  Level Memphis Center
Wed 08:09:51 AM 34.8267 -91.2703 305° West 284 327 36,000  Level Memphis Center
Wed 08:10:51 AM 34.8719 -91.3494 305° West 284 327 36,000  Level Memphis Center
Wed 08:11:51 AM 34.9092 -91.4156 304° West 277 319 36,000  Level Memphis Center
Wed 08:12:51 AM 34.9500 -91.4947 302° West 272 313 36,000  Level Memphis Center
Wed 08:13:51 AM 34.9972 -91.5714 307° West 277 319 36,000  Level Memphis Center
Wed 08:14:51 AM 35.0383 -91.6531 302° West 284 327 36,000  Level Memphis Center
Wed 08:15:51 AM 35.0792 -91.7297 303° West 284 327 36,000  Level Memphis Center
Wed 08:16:51 AM 35.1219 -91.8092 303° West 284 327 36,000  Level Memphis Center
Wed 08:17:51 AM 35.1650 -91.8886 304° West 284 327 36,000  Level Memphis Center
Wed 08:18:51 AM 35.2078 -91.9683 303° West 284 327 36,000  Level Memphis Center
Wed 08:19:51 AM 35.2506 -92.0478 303° West 284 327 36,000  Level Memphis Center
Wed 08:20:51 AM 35.2933 -92.1225 305° West 284 327 36,000  Level Memphis Center
Wed 08:21:51 AM 35.3358 -92.2025 303° West 284 327 36,000  Level Memphis Center
Wed 08:22:51 AM 35.3786 -92.2822 303° West 284 327 36,000  Level Memphis Center
Wed 08:23:51 AM 35.4189 -92.3594 303° West 284 327 36,000  Level Memphis Center
Wed 08:24:51 AM 35.4636 -92.4422 304° West 284 327 36,000  Level Memphis Center
Wed 08:25:51 AM 35.5039 -92.5172 303° West 284 327 36,000  Level Memphis Center
Wed 08:26:51 AM 35.5464 -92.5975 303° West 284 327 36,000  Level Memphis Center
Wed 08:27:51 AM 35.5886 -92.6778 303° West 284 327 36,000  Level Memphis Center
Wed 08:28:51 AM 35.6331 -92.7633 303° West 292 336 36,000  Level Memphis Center
Wed 08:29:51 AM 35.6733 -92.8358 304° West 288 331 36,000  Level Memphis Center
Wed 08:30:51 AM 35.7153 -92.9164 303° West 281 323 36,000  Level Memphis Center
Wed 08:31:51 AM 35.7575 -92.9969 303° West 281 323 36,000  Level Memphis Center
Wed 08:32:51 AM 35.7994 -93.0778 303° West 281 323 36,000  Level Memphis Center
Wed 08:33:51 AM 35.8417 -93.1586 303° West 281 323 36,000  Level Memphis Center
Wed 08:34:51 AM 35.8814 -93.2392 301° West 281 323 36,000  Level Memphis Center
Wed 08:35:51 AM 35.9233 -93.3175 303° West 281 323 36,000  Level Memphis Center
Wed 08:36:51 AM 35.9653 -93.3986 303° West 281 323 36,000  Level Memphis Center
Wed 08:37:51 AM 36.0092 -93.4797 304° West 281 323 36,000  Level Memphis Center
Wed 08:38:51 AM 36.0467 -93.5608 300° West 281 323 36,000  Level Memphis Center
Wed 08:39:51 AM 36.0883 -93.6394 303° West 281 323 36,000  Level Memphis Center
Wed 08:40:51 AM 36.1281 -93.7181 302° West 281 323 36,000 -821 Level Memphis Center
Wed 08:43:01 AM 36.2256 -93.8989 304° West 294 338 33,400 -1,288 Descending Kansas City Center
Wed 08:44:02 AM 36.2700 -93.9875 302° West 302 348 31,900 -1,463 Descending Kansas City Center
Wed 08:45:04 AM 36.3144 -94.0722 303° West 299 344 30,400 -1,597 Descending Kansas City Center
Wed 08:46:06 AM 36.3667 -94.1800 301° West 297 342 28,600 -1,610 Descending Kansas City Center
Wed 08:47:07 AM 36.4122 -94.2683 303° West 301 346 27,100 -1,463 Descending Kansas City Center
Wed 08:48:09 AM 36.4578 -94.3586 302° West 307 353 25,600 -1,463 Descending Kansas City Center
Wed 08:49:10 AM 36.5033 -94.4478 302° West 306 352 24,100 -976 Descending Kansas City Center
Wed 08:50:12 AM 36.5464 -94.5336 302° West 297 342 23,600 -968 Descending Kansas City Center
Wed 08:51:14 AM 36.5886 -94.6208 301° West 294 338 22,100 -1,463 Descending Kansas City Center
Wed 08:52:15 AM 36.6336 -94.7100 302° West 302 348 20,600 -1,610 Descending Kansas City Center
Wed 08:53:17 AM 36.6872 -94.8172 302° West 305 351 18,800 -1,610 Descending Kansas City Center
Wed 08:54:18 AM 36.7311 -94.9072 301° West 305 351 17,300 -1,463 Descending Kansas City Center
Wed 08:55:20 AM 36.7756 -94.9964 302° West 304 350 15,800 -1,452 Descending Kansas City Center
Wed 08:56:22 AM 36.8172 -95.0814 301° West 293 337 14,300 -1,463 Descending Kansas City Center
Wed 08:57:23 AM 36.8581 -95.1619 302° West 282 325 12,800 -1,463 Descending Kansas City Center
Wed 08:58:25 AM 36.8981 -95.2442 301° West 279 321 11,300 -1,463 Descending Kansas City Center
Wed 08:59:26 AM 36.9367 -95.3244 301° West 276 318 9,800 -1,610 Descending Kansas City Center
Wed 09:00:28 AM 36.9819 -95.4161 302° West 268 308 8,000 -1,597 Descending Kansas City Center
Wed 09:01:30 AM 37.0186 -95.4911 301° West 260 299 6,500 -1,415 Descending Kansas City Center
Wed 09:02:31 AM 37.0558 -95.5672 302° West 258 297 5,100 -1,268 Descending Kansas City Center
Wed 09:03:33 AM 37.0928 -95.6444 301° West 258 297 3,900 -1,024 Descending Kansas City Center
Wed 09:04:34 AM 37.1022 -95.7172 279° West 229 264 3,000 -927 Descending Kansas City Center
Wed 09:05:36 AM 37.1022 -95.7714 270° West 189 217 2,000 -871 Descending Kansas City Center
Wed 09:06:38 AM 37.1300 -95.7778 350° North 131 151 1,200 -774 Descending Kansas City Center

Login

Don't have an account? Register now (free) for customized features, flight alerts, and more!